createdAt,value
2023-12-16T00:02:09.474Z,102381.09
2023-12-16T00:04:37.106Z,102375.34
2023-12-16T00:07:04.165Z,102373.25
2023-12-16T00:09:30.887Z,102377.56
2023-12-16T00:11:58.166Z,102369.59
2023-12-16T00:14:25.208Z,102364.81
2023-12-16T00:16:51.959Z,102366.50
2023-12-16T00:19:18.767Z,102363.59
2023-12-16T00:21:45.529Z,102369.59
2023-12-16T00:24:12.234Z,102369.75
2023-12-16T00:26:38.937Z,102380.13
2023-12-16T00:29:05.642Z,102376.91
2023-12-16T00:31:32.371Z,102385.09
2023-12-16T00:33:59.232Z,102396.31
2023-12-16T00:36:26.183Z,102397.50
2023-12-16T00:38:52.980Z,102397.31
2023-12-16T00:41:19.660Z,102407.00
2023-12-16T00:43:46.472Z,102417.75
2023-12-16T00:46:13.151Z,102410.19
2023-12-16T00:48:40.042Z,102417.19
2023-12-16T00:51:07.029Z,102425.72
2023-12-16T00:53:33.685Z,102438.13
2023-12-16T00:56:00.386Z,102434.56
2023-12-16T00:58:27.086Z,102431.16
2023-12-16T01:00:54.067Z,102429.78
2023-12-16T01:03:20.910Z,102436.31
2023-12-16T01:05:47.750Z,102437.47
2023-12-16T01:08:14.660Z,102439.66
2023-12-16T01:10:41.534Z,102440.34
2023-12-16T01:13:08.242Z,102433.34
2023-12-16T01:15:35.032Z,102436.41
2023-12-16T01:18:01.977Z,102440.03
2023-12-16T01:20:28.903Z,102442.84
2023-12-16T01:22:55.644Z,102441.19
2023-12-16T01:25:22.410Z,102444.00
2023-12-16T01:27:49.363Z,102439.97
2023-12-16T01:30:16.441Z,102446.19
2023-12-16T01:32:43.317Z,102446.66
2023-12-16T01:35:10.160Z,102445.94
2023-12-16T01:37:37.286Z,102456.25
2023-12-16T01:40:05.058Z,102453.34
2023-12-16T01:42:31.762Z,102457.56
2023-12-16T01:44:58.660Z,102459.47
2023-12-16T01:47:25.693Z,102459.00
2023-12-16T01:49:55.802Z,102455.91
2023-12-16T01:52:22.788Z,102457.56
2023-12-16T01:54:49.753Z,102460.97
2023-12-16T01:57:16.733Z,102462.28
2023-12-16T01:59:43.795Z,102464.72
2023-12-16T02:02:12.050Z,102463.72
2023-12-16T02:04:38.928Z,102474.84
2023-12-16T02:07:06.511Z,102478.06
2023-12-16T02:09:33.384Z,102483.38
2023-12-16T02:12:00.100Z,102490.34
2023-12-16T02:14:27.001Z,102502.31
2023-12-16T02:16:53.643Z,102505.03
2023-12-16T02:19:26.336Z,102507.28
2023-12-16T02:21:56.168Z,102521.75
2023-12-16T02:24:23.095Z,102522.28
2023-12-16T02:26:49.903Z,102525.47
2023-12-16T02:29:18.826Z,102527.25
2023-12-16T02:31:46.105Z,102537.31
2023-12-16T02:34:13.164Z,102529.63
2023-12-16T02:36:40.124Z,102531.84
2023-12-16T02:39:06.851Z,102536.47
2023-12-16T02:41:33.694Z,102535.59
2023-12-16T02:44:00.530Z,102535.59
2023-12-16T02:46:27.351Z,102539.84
2023-12-16T02:48:54.241Z,102533.44
2023-12-16T02:51:21.364Z,102542.09
2023-12-16T02:53:48.342Z,102548.03
2023-12-16T02:56:15.121Z,102552.31
2023-12-16T02:58:41.841Z,102551.09
2023-12-16T03:01:08.741Z,102557.03
2023-12-16T03:03:38.425Z,102549.53
2023-12-16T03:06:06.665Z,102563.00
2023-12-16T03:08:34.500Z,102571.00
2023-12-16T03:11:03.053Z,102577.00
2023-12-16T03:13:29.813Z,102570.16
2023-12-16T03:15:56.717Z,102558.72
2023-12-16T03:18:23.620Z,102553.91
2023-12-16T03:20:50.971Z,102544.88
2023-12-16T03:23:17.888Z,102553.06
2023-12-16T03:25:44.630Z,102555.06
2023-12-16T03:28:12.223Z,102548.25
2023-12-16T03:30:40.863Z,102548.25
2023-12-16T03:33:08.957Z,102549.94
2023-12-16T03:35:36.223Z,102540.06
2023-12-16T03:38:03.165Z,102545.88
2023-12-16T03:40:30.074Z,102541.06
2023-12-16T03:42:57.206Z,102550.50
2023-12-16T03:45:24.327Z,102549.63
2023-12-16T03:47:50.999Z,102554.41
2023-12-16T03:50:17.725Z,102556.84
2023-12-16T03:52:44.402Z,102563.97
2023-12-16T03:55:11.156Z,102561.59
2023-12-16T03:57:38.046Z,102559.91
2023-12-16T04:00:05.811Z,102576.94
2023-12-16T04:02:32.552Z,102574.75
2023-12-16T04:04:59.381Z,102565.06
2023-12-16T04:07:26.114Z,102566.75
2023-12-16T04:09:52.974Z,102569.66
2023-12-16T04:12:19.746Z,102579.72
2023-12-16T04:14:46.477Z,102583.66
2023-12-16T04:17:13.258Z,102583.47
2023-12-16T04:19:40.163Z,102581.78
2023-12-16T04:22:07.059Z,102594.38
2023-12-16T04:24:33.842Z,102588.53
2023-12-16T04:27:00.574Z,102596.19
2023-12-16T04:29:27.242Z,102604.56
2023-12-16T04:31:54.012Z,102603.91
2023-12-16T04:34:20.810Z,102614.13
2023-12-16T04:36:47.567Z,102616.31
2023-12-16T04:39:14.256Z,102610.50
2023-12-16T04:41:41.117Z,102616.44
2023-12-16T04:44:07.930Z,102616.31
2023-12-16T04:46:34.787Z,102611.38
2023-12-16T04:49:01.595Z,102611.03
2023-12-16T04:51:28.591Z,102616.50
2023-12-16T04:53:56.442Z,102603.91
2023-12-16T04:56:23.591Z,102599.81
2023-12-16T04:58:50.366Z,102590.63
2023-12-16T05:01:17.530Z,102601.53
2023-12-16T05:03:44.358Z,102588.06
2023-12-16T05:06:11.226Z,102584.31
2023-12-16T05:08:37.968Z,102581.41
2023-12-16T05:11:04.887Z,102599.44
2023-12-16T05:13:31.674Z,102600.13
2023-12-16T05:15:58.367Z,102605.75
2023-12-16T05:18:25.391Z,102603.22
2023-12-16T05:20:52.142Z,102609.72
2023-12-16T05:23:18.828Z,102614.13
2023-12-16T05:25:45.556Z,102619.94
2023-12-16T05:28:12.261Z,102624.34
2023-12-16T05:30:39.226Z,102634.59
2023-12-16T05:33:06.060Z,102641.41
2023-12-16T05:35:33.489Z,102639.41
2023-12-16T05:38:00.324Z,102648.63
2023-12-16T05:40:27.175Z,102653.50
2023-12-16T05:42:53.954Z,102649.78
2023-12-16T05:45:20.718Z,102645.88
2023-12-16T05:47:47.426Z,102645.88
2023-12-16T05:50:14.299Z,102648.78
2023-12-16T05:52:41.081Z,102662.25
2023-12-16T05:55:08.373Z,102656.47
2023-12-16T05:57:35.092Z,102651.66
2023-12-16T06:00:01.827Z,102641.78
2023-12-16T06:02:28.529Z,102645.88
2023-12-16T06:04:55.249Z,102643.69
2023-12-16T06:07:22.046Z,102646.22
2023-12-16T06:09:48.923Z,102658.84
2023-12-16T06:12:15.689Z,102665.81
2023-12-16T06:14:42.337Z,102675.88
2023-12-16T06:17:09.178Z,102687.94
2023-12-16T06:19:35.983Z,102692.53
2023-12-16T06:22:02.833Z,102698.56
2023-12-16T06:24:29.633Z,102700.09
2023-12-16T06:26:56.515Z,102706.59
2023-12-16T06:29:23.160Z,102712.53
2023-12-16T06:31:49.861Z,102714.91
2023-12-16T06:34:16.830Z,102726.69
2023-12-16T06:36:43.755Z,102724.97
2023-12-16T06:39:10.464Z,102729.06
2023-12-16T06:41:37.144Z,102740.13
2023-12-16T06:44:03.975Z,102747.78
2023-12-16T06:46:30.895Z,102751.34
2023-12-16T06:48:58.230Z,102752.22
2023-12-16T06:51:26.312Z,102752.00
2023-12-16T06:53:53.069Z,102757.94
2023-12-16T06:56:19.812Z,102758.72
2023-12-16T06:58:46.536Z,102754.72
2023-12-16T07:01:13.424Z,102754.72
2023-12-16T07:03:40.320Z,102747.03
2023-12-16T07:06:07.864Z,102757.34
2023-12-16T07:08:34.654Z,102763.69
2023-12-16T07:11:03.304Z,102768.00
2023-12-16T07:13:30.142Z,102766.75
2023-12-16T07:15:56.956Z,102769.81
2023-12-16T07:18:23.728Z,102779.03
2023-12-16T07:20:50.550Z,102781.16
2023-12-16T07:23:17.290Z,102785.78
2023-12-16T07:25:44.152Z,102790.19
2023-12-16T07:28:11.082Z,102785.25
2023-12-16T07:30:37.960Z,102787.81
2023-12-16T07:33:04.882Z,102791.50
2023-12-16T07:35:31.682Z,102789.84
2023-12-16T07:37:58.368Z,102795.06
2023-12-16T07:40:25.112Z,102790.19
2023-12-16T07:42:51.925Z,102787.75
2023-12-16T07:45:18.844Z,102786.16
2023-12-16T07:47:46.047Z,102788.53
2023-12-16T07:50:13.114Z,102792.72
2023-12-16T07:52:39.806Z,102791.94
2023-12-16T07:55:06.807Z,102793.13
2023-12-16T07:57:33.552Z,102790.38
2023-12-16T08:00:00.250Z,102789.84
2023-12-16T08:02:27.123Z,102789.94
2023-12-16T08:04:53.788Z,102786.66
2023-12-16T08:07:21.690Z,102793.19
2023-12-16T08:09:48.410Z,102803.88
2023-12-16T08:12:15.289Z,102809.34
2023-12-16T08:14:42.136Z,102809.34
2023-12-16T08:17:08.910Z,102809.16
2023-12-16T08:19:35.708Z,102816.91
2023-12-16T08:22:02.783Z,102822.88
2023-12-16T08:24:29.651Z,102828.56
2023-12-16T08:26:56.401Z,102835.50
2023-12-16T08:29:23.205Z,102837.03
2023-12-16T08:31:49.919Z,102828.56
2023-12-16T08:34:16.822Z,102825.63
2023-12-16T08:36:43.619Z,102833.69
2023-12-16T08:39:10.383Z,102831.59
2023-12-16T08:41:37.059Z,102833.59
2023-12-16T08:44:03.873Z,102831.13
2023-12-16T08:46:30.619Z,102828.81
2023-12-16T08:48:57.544Z,102834.13
2023-12-16T08:51:24.620Z,102833.50
2023-12-16T08:53:52.096Z,102828.69
2023-12-16T08:56:18.888Z,102826.66
2023-12-16T08:58:48.282Z,102833.84
2023-12-16T09:01:15.227Z,102828.88
2023-12-16T09:03:45.282Z,102844.38
2023-12-16T09:06:12.166Z,102830.81
2023-12-16T09:08:39.163Z,102830.50
2023-12-16T09:11:06.094Z,102828.13
2023-12-16T09:13:33.333Z,102833.72
2023-12-16T09:16:00.319Z,102835.19
2023-12-16T09:18:27.096Z,102828.31
2023-12-16T09:20:53.936Z,102845.34
2023-12-16T09:23:20.643Z,102830.03
2023-12-16T09:25:47.430Z,102822.91
2023-12-16T09:28:14.260Z,102829.72
2023-12-16T09:30:41.342Z,102823.94
2023-12-16T09:33:08.149Z,102818.53
2023-12-16T09:35:35.083Z,102820.63
2023-12-16T09:38:01.778Z,102811.56
2023-12-16T09:40:28.751Z,102818.06
2023-12-16T09:43:00.491Z,102810.31
2023-12-16T09:45:27.493Z,102809.22
2023-12-16T09:47:54.286Z,102818.47
2023-12-16T09:50:20.994Z,102815.91
2023-12-16T09:52:47.752Z,102810.25
2023-12-16T09:55:14.758Z,102811.34
2023-12-16T09:57:43.469Z,102812.94
2023-12-16T10:00:10.803Z,102821.34
2023-12-16T10:02:38.774Z,102822.06
2023-12-16T10:05:07.414Z,102826.06
2023-12-16T10:07:34.253Z,102829.69
2023-12-16T10:10:01.109Z,102818.91
2023-12-16T10:12:33.876Z,102820.88
2023-12-16T10:15:00.787Z,102823.97
2023-12-16T10:17:27.513Z,102821.44
2023-12-16T10:19:54.430Z,102819.13
2023-12-16T10:22:22.025Z,102817.44
2023-12-16T10:24:48.888Z,102814.38
2023-12-16T10:27:16.348Z,102824.66
2023-12-16T10:29:53.920Z,102812.97
2023-12-16T10:32:29.908Z,102812.69
2023-12-16T10:34:56.685Z,102824.84
2023-12-16T10:37:23.360Z,102820.47
2023-12-16T10:39:50.186Z,102813.41
2023-12-16T10:42:16.844Z,102813.25
2023-12-16T10:44:43.593Z,102797.94
2023-12-16T10:47:12.552Z,102807.19
2023-12-16T10:49:45.064Z,102814.69
2023-12-16T10:52:13.785Z,102803.38
2023-12-16T10:54:42.163Z,102795.31
2023-12-16T10:57:25.524Z,102800.78
2023-12-16T11:00:17.931Z,102791.84
2023-12-16T11:02:50.364Z,102788.97
2023-12-16T11:05:43.092Z,102789.34
2023-12-16T11:08:10.175Z,102780.53
2023-12-16T11:10:37.248Z,102779.16
2023-12-16T11:13:05.378Z,102779.03
2023-12-16T11:15:34.199Z,102780.22
2023-12-16T11:18:20.838Z,102766.44
2023-12-16T11:20:53.113Z,102775.66
2023-12-16T11:23:20.348Z,102786.25
2023-12-16T11:25:48.971Z,102787.88
2023-12-16T11:28:15.835Z,102785.66
2023-12-16T11:30:42.831Z,102785.88
2023-12-16T11:33:09.773Z,102781.91
2023-12-16T11:35:36.640Z,102801.16
2023-12-16T11:38:04.210Z,102792.38
2023-12-16T11:40:46.449Z,102791.44
2023-12-16T11:43:13.721Z,102779.84
2023-12-16T11:45:42.985Z,102769.00
2023-12-16T11:48:12.527Z,102759.53
2023-12-16T11:50:46.463Z,102757.00
2023-12-16T11:53:15.395Z,102765.53
2023-12-16T11:55:42.570Z,102759.75
2023-12-16T11:58:09.340Z,102755.47
2023-12-16T12:00:36.388Z,102743.34
2023-12-16T12:03:06.027Z,102743.53
2023-12-16T12:05:35.194Z,102743.28
2023-12-16T12:08:02.383Z,102727.63
2023-12-16T12:10:29.204Z,102733.19
2023-12-16T12:12:57.348Z,102732.75
2023-12-16T12:15:24.056Z,102731.91
2023-12-16T12:17:51.132Z,102734.69
2023-12-16T12:20:19.254Z,102730.34
2023-12-16T12:22:46.448Z,102733.44
2023-12-16T12:27:49.693Z,102727.53
2023-12-16T12:30:17.738Z,102720.47
2023-12-16T12:32:44.717Z,102720.47
2023-12-16T12:35:11.610Z,102724.38
2023-12-16T12:37:40.243Z,102718.09
2023-12-16T12:40:19.779Z,102726.59
2023-12-16T12:42:49.504Z,102718.19
2023-12-16T12:45:26.559Z,102723.81
2023-12-16T12:48:09.014Z,102716.59
2023-12-16T12:50:36.036Z,102713.72
2023-12-16T12:53:23.087Z,102710.50
2023-12-16T12:55:52.298Z,102707.09
2023-12-16T12:58:23.136Z,102706.94
2023-12-16T13:00:54.844Z,102703.97
2023-12-16T13:03:21.730Z,102704.84
2023-12-16T13:05:48.865Z,102700.47
2023-12-16T13:08:15.763Z,102705.97
2023-12-16T13:10:42.618Z,102716.97
2023-12-16T13:13:09.543Z,102722.28
2023-12-16T13:15:53.254Z,102718.50
2023-12-16T13:18:23.600Z,102710.22
2023-12-16T13:20:50.700Z,102714.25
2023-12-16T13:23:17.777Z,102720.19
2023-12-16T13:25:44.529Z,102711.28
2023-12-16T13:28:11.418Z,102715.09
2023-12-16T13:30:38.193Z,102710.47
2023-12-16T13:33:05.254Z,102710.03
2023-12-16T13:35:32.078Z,102716.19
2023-12-16T13:37:59.369Z,102715.34
2023-12-16T13:40:26.065Z,102716.38
2023-12-16T13:42:52.800Z,102726.56
2023-12-16T13:45:19.633Z,102716.59
2023-12-16T13:47:46.580Z,102721.28
2023-12-16T13:50:13.678Z,102724.66
2023-12-16T13:52:40.384Z,102722.75
2023-12-16T13:55:07.453Z,102719.56
2023-12-16T13:57:34.256Z,102715.53
2023-12-16T14:00:01.202Z,102725.06
2023-12-16T14:02:28.224Z,102723.38
2023-12-16T14:04:54.891Z,102720.19
2023-12-16T14:07:21.655Z,102721.22
2023-12-16T14:09:48.508Z,102725.44
2023-12-16T14:12:15.345Z,102721.41
2023-12-16T14:14:42.024Z,102726.25
2023-12-16T14:17:08.939Z,102719.28
2023-12-16T14:19:37.669Z,102720.13
2023-12-16T14:22:04.888Z,102713.97
2023-12-16T14:24:31.554Z,102718.00
2023-12-16T14:26:58.450Z,102715.44
2023-12-16T14:29:25.372Z,102712.84
2023-12-16T14:31:52.399Z,102713.66
2023-12-16T14:34:19.418Z,102709.66
2023-12-16T14:36:46.417Z,102713.63
2023-12-16T14:39:13.297Z,102717.56
2023-12-16T14:41:41.133Z,102715.53
2023-12-16T14:44:08.397Z,102713.47
2023-12-16T14:46:35.074Z,102707.53
2023-12-16T14:49:01.902Z,102706.22
2023-12-16T14:51:28.717Z,102709.19
2023-12-16T14:53:55.615Z,102699.94
2023-12-16T14:56:22.833Z,102692.88
2023-12-16T14:58:49.809Z,102704.94
2023-12-16T15:01:23.635Z,102706.34
2023-12-16T15:03:50.437Z,102716.03
2023-12-16T15:06:25.563Z,102714.34
2023-12-16T15:08:56.606Z,102704.25
2023-12-16T15:11:23.640Z,102700.47
2023-12-16T15:13:50.461Z,102706.94
2023-12-16T15:16:20.370Z,102710.41
2023-12-16T15:18:48.580Z,102709.63
2023-12-16T15:21:15.965Z,102705.53
2023-12-16T15:23:42.734Z,102698.31
2023-12-16T15:26:09.565Z,102702.78
2023-12-16T15:28:36.384Z,102692.13
2023-12-16T15:31:03.272Z,102696.22
2023-12-16T15:33:30.504Z,102703.16
2023-12-16T15:35:57.498Z,102700.59
2023-12-16T15:38:24.445Z,102696.13
2023-12-16T15:40:51.168Z,102706.59
2023-12-16T15:43:18.000Z,102700.47
2023-12-16T15:45:44.760Z,102699.06
2023-12-16T15:48:11.643Z,102697.97
2023-12-16T15:50:39.695Z,102709.19
2023-12-16T15:53:06.660Z,102704.00
2023-12-16T15:55:33.450Z,102706.84
2023-12-16T15:58:00.296Z,102705.25
2023-12-16T16:00:27.042Z,102717.34
2023-12-16T16:02:53.771Z,102717.91
2023-12-16T16:05:22.273Z,102730.84
2023-12-16T16:07:49.942Z,102731.97
2023-12-16T16:10:16.961Z,102740.56
2023-12-16T16:12:43.851Z,102733.94
2023-12-16T16:15:17.259Z,102736.00
2023-12-16T16:17:46.916Z,102735.25
2023-12-16T16:20:14.453Z,102735.44
2023-12-16T16:22:41.284Z,102734.31
2023-12-16T16:25:10.413Z,102738.31
2023-12-16T16:27:39.024Z,102746.16
2023-12-16T16:30:06.779Z,102741.56
2023-12-16T16:32:33.948Z,102746.25
2023-12-16T16:35:00.856Z,102743.94
2023-12-16T16:37:31.189Z,102756.34
2023-12-16T16:39:59.080Z,102756.06
2023-12-16T16:42:25.902Z,102753.53
2023-12-16T16:44:52.563Z,102766.22
2023-12-16T16:47:19.329Z,102757.38
2023-12-16T16:49:46.175Z,102759.44
2023-12-16T16:52:13.288Z,102762.47
2023-12-16T16:54:40.016Z,102760.75
2023-12-16T16:57:06.664Z,102764.53
2023-12-16T16:59:33.495Z,102766.75
2023-12-16T17:02:00.359Z,102758.25
2023-12-16T17:04:27.245Z,102768.56
2023-12-16T17:06:54.076Z,102769.03
2023-12-16T17:09:20.988Z,102770.75
2023-12-16T17:11:47.708Z,102777.81
2023-12-16T17:14:14.373Z,102784.09
2023-12-16T17:16:42.311Z,102780.94
2023-12-16T17:19:10.689Z,102787.00
2023-12-16T17:21:37.808Z,102773.13
2023-12-16T17:24:05.199Z,102780.47
2023-12-16T17:26:31.949Z,102790.72
2023-12-16T17:28:58.636Z,102797.06
2023-12-16T17:31:25.296Z,102793.34
2023-12-16T17:33:52.222Z,102798.47
2023-12-16T17:36:18.897Z,102801.19
2023-12-16T17:38:45.742Z,102808.47
2023-12-16T17:41:12.549Z,102802.91
2023-12-16T17:43:39.244Z,102799.75
2023-12-16T17:46:06.007Z,102810.41
2023-12-16T17:48:32.748Z,102796.63
2023-12-16T17:50:59.787Z,102798.16
2023-12-16T17:53:26.544Z,102793.09
2023-12-16T17:55:53.400Z,102790.84
2023-12-16T17:58:20.132Z,102788.28
2023-12-16T18:00:47.162Z,102793.41
2023-12-16T18:03:14.038Z,102798.22
2023-12-16T18:05:41.112Z,102793.13
2023-12-16T18:08:08.320Z,102797.75
2023-12-16T18:10:35.510Z,102800.19
2023-12-16T18:13:02.206Z,102807.84
2023-12-16T18:15:28.928Z,102810.09
2023-12-16T18:17:55.745Z,102816.03
2023-12-16T18:20:22.524Z,102808.53
2023-12-16T18:22:49.196Z,102819.59
2023-12-16T18:25:17.102Z,102809.38
2023-12-16T18:27:44.004Z,102804.09
2023-12-16T18:30:11.554Z,102812.13
2023-12-16T18:32:38.554Z,102803.47
2023-12-16T18:35:05.685Z,102801.72
2023-12-16T18:37:32.455Z,102809.06
2023-12-16T18:40:00.925Z,102813.19
2023-12-16T18:42:28.421Z,102814.19
2023-12-16T18:44:55.130Z,102815.72
2023-12-16T18:47:21.866Z,102813.34
2023-12-16T18:49:48.659Z,102826.66
2023-12-16T18:52:15.384Z,102820.81
2023-12-16T18:54:42.081Z,102819.81
2023-12-16T18:57:08.912Z,102820.84
2023-12-16T18:59:35.637Z,102819.88
2023-12-16T19:02:02.374Z,102821.22
2023-12-16T19:04:29.467Z,102825.31
2023-12-16T19:06:56.341Z,102815.78
2023-12-16T19:09:23.320Z,102820.59
2023-12-16T19:11:50.139Z,102817.00
2023-12-16T19:14:16.913Z,102817.88
2023-12-16T19:16:43.721Z,102816.84
2023-12-16T19:19:10.817Z,102824.69
2023-12-16T19:21:37.651Z,102831.16
2023-12-16T19:24:04.691Z,102826.72
2023-12-16T19:26:31.501Z,102832.84
2023-12-16T19:28:58.252Z,102842.91
2023-12-16T19:31:24.915Z,102834.91
2023-12-16T19:33:51.922Z,102836.75
2023-12-16T19:36:18.776Z,102838.66
2023-12-16T19:38:45.522Z,102845.84
2023-12-16T19:41:12.215Z,102851.78
2023-12-16T19:43:38.899Z,102847.53
2023-12-16T19:46:05.708Z,102852.81
2023-12-16T19:48:32.672Z,102847.88
2023-12-16T19:50:59.733Z,102854.19
2023-12-16T19:53:26.621Z,102862.91
2023-12-16T19:55:53.371Z,102865.28
2023-12-16T19:58:20.108Z,102864.56
2023-12-16T20:00:46.806Z,102863.19
2023-12-16T20:03:13.661Z,102862.53
2023-12-16T20:05:40.500Z,102865.44
2023-12-16T20:08:07.400Z,102862.91
2023-12-16T20:10:34.264Z,102856.75
2023-12-16T20:13:00.905Z,102850.81
2023-12-16T20:15:27.680Z,102851.31
2023-12-16T20:17:54.665Z,102855.03
2023-12-16T20:20:21.643Z,102853.66
2023-12-16T20:22:48.323Z,102850.25
2023-12-16T20:25:15.262Z,102842.06
2023-12-16T20:27:42.327Z,102835.56
2023-12-16T20:30:09.456Z,102843.22
2023-12-16T20:32:37.101Z,102848.34
2023-12-16T20:35:04.230Z,102849.66
2023-12-16T20:37:30.931Z,102856.16
2023-12-16T20:39:57.574Z,102856.69
2023-12-16T20:42:24.684Z,102854.63
2023-12-16T20:44:51.480Z,102857.56
2023-12-16T20:47:18.355Z,102851.22
2023-12-16T20:49:45.135Z,102852.94
2023-12-16T20:52:12.032Z,102852.25
2023-12-16T20:54:38.665Z,102859.03
2023-12-16T20:57:05.531Z,102857.00
2023-12-16T20:59:32.212Z,102857.69
2023-12-16T21:01:59.044Z,102849.97
2023-12-16T21:04:25.788Z,102850.13
2023-12-16T21:06:52.778Z,102847.09
2023-12-16T21:09:19.632Z,102846.75
2023-12-16T21:11:46.651Z,102854.25
2023-12-16T21:14:13.424Z,102852.00
2023-12-16T21:16:40.109Z,102861.03
2023-12-16T21:19:06.902Z,102864.81
2023-12-16T21:21:33.585Z,102864.66
2023-12-16T21:24:00.376Z,102851.69
2023-12-16T21:26:27.213Z,102859.38
2023-12-16T21:28:53.975Z,102856.28
2023-12-16T21:31:20.764Z,102860.91
2023-12-16T21:33:47.772Z,102864.50
2023-12-16T21:36:14.629Z,102859.38
2023-12-16T21:38:41.788Z,102860.94
2023-12-16T21:41:08.740Z,102867.09
2023-12-16T21:43:35.619Z,102863.00
2023-12-16T21:46:02.343Z,102871.38
2023-12-16T21:48:29.180Z,102872.41
2023-12-16T21:50:56.285Z,102877.84
2023-12-16T21:53:23.141Z,102882.13
2023-12-16T21:55:49.835Z,102880.41
2023-12-16T21:58:16.721Z,102881.59
2023-12-16T22:00:43.547Z,102873.09
2023-12-16T22:03:10.288Z,102868.31
2023-12-16T22:05:37.349Z,102865.56
2023-12-16T22:08:06.688Z,102850.94
2023-12-16T22:10:34.389Z,102848.19
2023-12-16T22:13:01.060Z,102844.44
2023-12-16T22:15:27.909Z,102842.38
2023-12-16T22:17:54.843Z,102840.84
2023-12-16T22:20:21.627Z,102834.22
2023-12-16T22:22:48.370Z,102832.50
2023-12-16T22:25:15.159Z,102835.41
2023-12-16T22:27:42.016Z,102825.19
2023-12-16T22:30:09.325Z,102836.97
2023-12-16T22:32:36.036Z,102833.72
2023-12-16T22:35:02.850Z,102839.00
2023-12-16T22:37:29.597Z,102845.97
2023-12-16T22:39:56.366Z,102844.44
2023-12-16T22:42:23.194Z,102846.50
2023-12-16T22:44:50.080Z,102846.50
2023-12-16T22:47:16.848Z,102854.50
2023-12-16T22:49:43.833Z,102860.47
2023-12-16T22:52:10.993Z,102851.31
2023-12-16T22:54:37.712Z,102845.84
2023-12-16T22:57:04.906Z,102840.41
2023-12-16T22:59:31.750Z,102850.44
2023-12-16T23:01:58.506Z,102839.91
2023-12-16T23:04:25.240Z,102843.47
2023-12-16T23:06:51.934Z,102853.00
2023-12-16T23:09:18.847Z,102853.69
2023-12-16T23:11:45.784Z,102845.84
2023-12-16T23:14:12.624Z,102844.81
2023-12-16T23:16:39.440Z,102839.38
2023-12-16T23:19:06.280Z,102839.22
2023-12-16T23:21:33.033Z,102841.09
2023-12-16T23:24:00.279Z,102838.03
2023-12-16T23:26:27.227Z,102836.13
2023-12-16T23:28:53.981Z,102829.34
2023-12-16T23:31:20.835Z,102822.34
2023-12-16T23:33:47.740Z,102823.69
2023-12-16T23:36:14.490Z,102828.81
2023-12-16T23:38:41.445Z,102814.13
2023-12-16T23:41:15.095Z,102812.78
2023-12-16T23:43:41.854Z,102812.63
2023-12-16T23:46:12.737Z,102797.63
2023-12-16T23:48:41.273Z,102802.72
2023-12-16T23:51:08.181Z,102808.34
2023-12-16T23:53:35.652Z,102818.22
2023-12-16T23:56:03.033Z,102817.19
2023-12-16T23:58:29.693Z,102819.91
